Time;durP1;ratioP1;P1;durP2;ratioP2;P2;SDS_P1;SDS_P2;PMS_P1;PMS_P2;Temp;Humidity;BMP_temperature;BMP_pressure;BME280_temperature;BME280_humidity;BME280_pressure;Samples;Min_cycle;Max_cycle;Signal;HPM_P1;HPM_P2
2022/08/20 00:00:19;;;;;;;;;;;20.80;99.90;;;;;;5061805;28;20072;-76
2022/08/20 00:02:56;;;;;;;;;;;20.80;99.90;;;;;;5069801;28;19912;-75
2022/08/20 00:05:23;;;;;;;;;;;20.70;99.90;;;;;;5066097;28;19912;-75
2022/08/20 00:07:49;;;;;;;;;;;20.80;99.90;;;;;;5071323;28;19941;-75
2022/08/20 00:10:14;;;;;;;;;;;20.90;99.90;;;;;;5043902;28;20011;-75
2022/08/20 00:12:44;;;;;;;;;;;20.90;99.90;;;;;;5067389;28;19921;-75
2022/08/20 00:15:11;;;;;;;;;;;21.00;99.90;;;;;;5061767;28;19916;-75
2022/08/20 00:17:36;;;;;;;;;;;20.90;99.90;;;;;;5071429;28;20335;-75
2022/08/20 00:20:08;;;;;;;;;;;20.90;99.90;;;;;;5070964;28;19926;-75
2022/08/20 00:22:33;;;;;;;;;;;21.00;99.90;;;;;;5060563;28;19942;-75
2022/08/20 00:24:59;;;;;;;;;;;21.00;99.90;;;;;;5063806;28;20367;-75
2022/08/20 00:27:25;;;;;;;;;;;21.00;99.90;;;;;;5069928;28;19920;-75
2022/08/20 00:29:50;;;;;;;;;;;20.90;99.90;;;;;;5070753;28;19999;-76
2022/08/20 00:32:16;;;;;;;;;;;20.90;99.90;;;;;;5067777;28;19919;-76
2022/08/20 00:34:41;;;;;;;;;;;20.80;99.90;;;;;;5047615;28;19917;-76
2022/08/20 00:37:07;;;;;;;;;;;20.80;99.90;;;;;;5067890;28;20372;-75
2022/08/20 00:39:33;;;;;;;;;;;20.70;99.90;;;;;;5058121;28;19917;-74
2022/08/20 00:41:58;;;;;;;;;;;20.70;99.90;;;;;;5063555;28;19919;-74
2022/08/20 00:44:24;;;;;;;;;;;20.60;99.90;;;;;;5071356;28;19916;-75
2022/08/20 00:46:50;;;;;;;;;;;20.60;99.90;;;;;;5064574;28;19921;-75
2022/08/20 00:49:21;;;;;;;;;;;20.60;99.90;;;;;;5062038;28;19942;-75
2022/08/20 00:51:50;;;;;;;;;;;20.60;99.90;;;;;;5064619;28;19912;-75
2022/08/20 00:54:18;;;;;;;;;;;20.60;99.90;;;;;;5065191;28;20299;-75
2022/08/20 00:56:45;;;;;;;;;;;20.60;99.90;;;;;;5071354;28;19995;-75
2022/08/20 00:59:13;;;;;;;;;;;20.50;99.90;;;;;;5070912;28;19912;-75
2022/08/20 01:01:40;;;;;;;;;;;20.50;99.90;;;;;;5071549;28;19916;-76
2022/08/20 01:04:05;;;;;;;;;;;20.50;99.90;;;;;;5065749;28;19935;-75
2022/08/20 01:06:31;;;;;;;;;;;20.50;99.90;;;;;;5028924;28;20397;-76
2022/08/20 01:09:00;;;;;;;;;;;20.40;99.90;;;;;;5024410;28;19917;-75
2022/08/20 01:11:33;;;;;;;;;;;20.50;99.90;;;;;;5018494;28;19955;-75
2022/08/20 01:16:50;;;;;;;;;;;20.40;99.90;;;;;;5014157;28;19992;-74
2022/08/20 01:19:20;;;;;;;;;;;20.40;99.90;;;;;;5025913;28;19919;-75
2022/08/20 01:21:46;;;;;;;;;;;20.30;99.90;;;;;;5022066;28;19913;-75
2022/08/20 01:24:29;;;;;;;;;;;20.30;99.90;;;;;;5018985;28;19913;-76
2022/08/20 01:26:55;;;;;;;;;;;20.30;99.90;;;;;;5013808;28;19969;-75
2022/08/20 01:29:22;;;;;;;;;;;20.20;99.90;;;;;;5026200;28;19968;-75
2022/08/20 01:31:48;;;;;;;;;;;20.10;99.90;;;;;;5025135;28;19953;-75
2022/08/20 01:34:15;;;;;;;;;;;20.10;99.90;;;;;;5017454;28;19985;-75
2022/08/20 01:36:43;;;;;;;;;;;20.00;99.90;;;;;;5027860;28;19921;-74
2022/08/20 01:39:10;;;;;;;;;;;19.90;99.90;;;;;;5048598;28;19913;-75
2022/08/20 01:41:47;;;;;;;;;;;19.70;99.90;;;;;;5050660;28;19947;-74
2022/08/20 01:44:13;;;;;;;;;;;19.60;99.90;;;;;;5048748;28;20000;-76
2022/08/20 01:46:41;;;;;;;;;;;19.60;99.90;;;;;;5048167;28;19956;-75
2022/08/20 01:49:27;;;;;;;;;;;19.60;99.90;;;;;;5042301;28;19913;-76
2022/08/20 01:51:53;;;;;;;;;;;19.60;99.90;;;;;;5045219;28;19912;-73
2022/08/20 01:54:19;;;;;;;;;;;19.60;99.90;;;;;;5041267;28;19915;-74
2022/08/20 01:57:05;;;;;;;;;;;19.60;99.90;;;;;;5046857;28;20399;-73
2022/08/20 01:59:31;;;;;;;;;;;19.60;99.90;;;;;;5057574;28;19913;-75
2022/08/20 02:01:57;;;;;;;;;;;19.60;99.90;;;;;;5049520;28;20253;-74
2022/08/20 02:04:23;;;;;;;;;;;19.60;99.90;;;;;;5054637;28;20394;-74
2022/08/20 02:06:54;;;;;;;;;;;19.60;99.90;;;;;;5051334;28;20003;-74
2022/08/20 02:09:20;;;;;;;;;;;19.60;99.90;;;;;;5052521;28;20348;-74
2022/08/20 02:11:46;;;;;;;;;;;19.60;99.90;;;;;;5047574;28;19948;-75
2022/08/20 02:14:12;;;;;;;;;;;19.70;99.90;;;;;;5050504;28;19928;-75
2022/08/20 02:16:38;;;;;;;;;;;19.70;99.90;;;;;;5050367;28;19913;-73
2022/08/20 02:19:08;;;;;;;;;;;19.60;99.90;;;;;;5053419;28;19913;-74
2022/08/20 02:21:36;;;;;;;;;;;19.60;99.90;;;;;;5054812;28;19912;-74
2022/08/20 02:24:02;;;;;;;;;;;19.60;99.90;;;;;;5050594;28;19913;-74
2022/08/20 02:26:27;;;;;;;;;;;19.50;99.90;;;;;;5053197;28;19919;-73
2022/08/20 02:28:54;;;;;;;;;;;19.50;99.90;;;;;;5046267;28;19916;-74
2022/08/20 02:31:21;;;;;;;;;;;19.50;99.90;;;;;;5053705;28;20368;-74
2022/08/20 02:33:47;;;;;;;;;;;19.50;99.90;;;;;;5058947;28;20454;-73
2022/08/20 02:36:13;;;;;;;;;;;19.50;99.90;;;;;;5073335;28;20133;-75
2022/08/20 02:38:39;;;;;;;;;;;19.50;99.90;;;;;;5072500;28;19982;-75
2022/08/20 02:41:05;;;;;;;;;;;19.50;99.90;;;;;;5058068;28;19944;-74
2022/08/20 02:43:31;;;;;;;;;;;19.50;99.90;;;;;;5045447;28;20593;-75
2022/08/20 02:45:57;;;;;;;;;;;19.50;99.90;;;;;;5050728;28;20004;-75
2022/08/20 02:48:23;;;;;;;;;;;19.50;99.90;;;;;;5067166;28;19982;-75
2022/08/20 02:50:50;;;;;;;;;;;19.50;99.90;;;;;;5072730;28;20379;-75
2022/08/20 02:53:15;;;;;;;;;;;19.60;99.90;;;;;;5069408;28;19920;-76
2022/08/20 02:55:41;;;;;;;;;;;19.60;99.90;;;;;;5057789;28;19917;-74
2022/08/20 02:58:06;;;;;;;;;;;19.60;99.90;;;;;;5061028;28;19935;-75
2022/08/20 03:00:32;;;;;;;;;;;19.60;99.90;;;;;;5072549;28;20059;-74
2022/08/20 03:02:59;;;;;;;;;;;19.60;99.90;;;;;;5051349;28;19916;-75
2022/08/20 03:05:24;;;;;;;;;;;19.60;99.90;;;;;;5072498;28;19916;-75
2022/08/20 03:07:55;;;;;;;;;;;19.60;99.90;;;;;;5062863;28;19923;-74
2022/08/20 03:10:24;;;;;;;;;;;19.50;99.90;;;;;;5069959;28;19919;-75
2022/08/20 03:12:51;;;;;;;;;;;19.50;99.90;;;;;;5047355;28;19919;-74
2022/08/20 03:15:17;;;;;;;;;;;19.50;99.90;;;;;;5072587;28;19919;-75
2022/08/20 03:17:42;;;;;;;;;;;19.50;99.90;;;;;;5072260;28;19920;-76
2022/08/20 03:20:08;;;;;;;;;;;19.50;99.90;;;;;;5065434;28;19962;-75
2022/08/20 03:22:34;;;;;;;;;;;19.50;99.90;;;;;;5041958;28;19958;-74
2022/08/20 03:24:59;;;;;;;;;;;19.50;99.90;;;;;;5073024;28;19909;-74
2022/08/20 03:27:25;;;;;;;;;;;19.50;99.90;;;;;;5042982;28;20012;-75
2022/08/20 03:29:50;;;;;;;;;;;19.50;99.90;;;;;;5068144;28;19912;-75
2022/08/20 03:32:16;;;;;;;;;;;19.40;99.90;;;;;;5052054;28;19924;-74
2022/08/20 03:34:41;;;;;;;;;;;19.40;99.90;;;;;;5071401;28;19924;-76
2022/08/20 03:37:07;;;;;;;;;;;19.40;99.90;;;;;;5071873;28;20722;-75
2022/08/20 03:39:32;;;;;;;;;;;19.40;99.90;;;;;;5071637;28;19916;-75
2022/08/20 03:41:58;;;;;;;;;;;19.40;99.90;;;;;;5071901;28;19913;-75
2022/08/20 03:44:25;;;;;;;;;;;19.30;99.90;;;;;;5041912;28;19917;-75
2022/08/20 03:46:51;;;;;;;;;;;19.20;99.90;;;;;;5058346;28;19932;-74
2022/08/20 03:49:16;;;;;;;;;;;19.20;99.90;;;;;;5068336;28;20355;-75
2022/08/20 03:51:42;;;;;;;;;;;19.10;99.90;;;;;;5073520;28;20383;-74
2022/08/20 03:54:07;;;;;;;;;;;19.10;99.90;;;;;;5068467;28;19927;-74
2022/08/20 03:56:33;;;;;;;;;;;19.10;99.90;;;;;;5046741;28;19924;-75
2022/08/20 03:58:58;;;;;;;;;;;19.10;99.90;;;;;;5072878;28;19909;-75
2022/08/20 04:01:24;;;;;;;;;;;19.00;99.90;;;;;;5066709;28;19916;-74
2022/08/20 04:03:49;;;;;;;;;;;19.00;99.90;;;;;;5070586;28;20424;-75
2022/08/20 04:06:17;;;;;;;;;;;19.00;99.90;;;;;;5052629;28;19920;-74
2022/08/20 04:08:42;;;;;;;;;;;19.00;99.90;;;;;;5063280;28;19912;-76
2022/08/20 04:11:08;;;;;;;;;;;19.00;99.90;;;;;;5071266;28;19936;-75
2022/08/20 04:13:33;;;;;;;;;;;19.00;99.90;;;;;;5070747;28;19912;-74
2022/08/20 04:16:07;;;;;;;;;;;19.00;99.90;;;;;;5066538;28;21292;-75
2022/08/20 04:18:35;;;;;;;;;;;19.00;99.90;;;;;;5066975;28;20253;-75
2022/08/20 04:21:00;;;;;;;;;;;18.90;99.90;;;;;;5067401;28;19916;-74
2022/08/20 04:23:26;;;;;;;;;;;18.90;99.90;;;;;;5068690;28;20489;-74
2022/08/20 04:25:51;;;;;;;;;;;18.80;99.90;;;;;;5065267;28;19912;-75
2022/08/20 04:28:25;;;;;;;;;;;18.80;99.90;;;;;;5067571;28;20026;-75
2022/08/20 04:30:55;;;;;;;;;;;18.70;99.90;;;;;;5065258;28;19920;-74
2022/08/20 04:33:20;;;;;;;;;;;18.70;99.90;;;;;;5066225;28;19923;-74
2022/08/20 04:35:46;;;;;;;;;;;18.70;99.90;;;;;;5062855;28;19913;-74
2022/08/20 04:38:13;;;;;;;;;;;18.70;99.90;;;;;;5065038;28;19916;-73
2022/08/20 04:40:59;;;;;;;;;;;18.60;99.90;;;;;;5069478;28;19913;-75
2022/08/20 04:43:26;;;;;;;;;;;18.70;99.90;;;;;;5069196;28;19912;-75
2022/08/20 04:45:52;;;;;;;;;;;18.70;99.90;;;;;;5071122;28;19912;-74
2022/08/20 04:48:19;;;;;;;;;;;18.70;99.90;;;;;;5071814;28;20421;-75
2022/08/20 04:50:48;;;;;;;;;;;18.60;99.90;;;;;;5052725;28;20406;-75
2022/08/20 04:53:16;;;;;;;;;;;18.60;99.90;;;;;;5068682;28;19916;-76
2022/08/20 04:55:43;;;;;;;;;;;18.50;99.90;;;;;;5054185;28;19962;-75
2022/08/20 04:58:10;;;;;;;;;;;18.50;99.90;;;;;;5044180;28;19919;-75
2022/08/20 05:00:37;;;;;;;;;;;18.40;99.90;;;;;;5071006;28;19908;-74
2022/08/20 05:03:05;;;;;;;;;;;18.40;99.90;;;;;;5047213;28;20003;-74
2022/08/20 05:08:17;;;;;;;;;;;18.30;99.90;;;;;;5065555;28;19966;-75
2022/08/20 05:10:42;;;;;;;;;;;18.20;99.90;;;;;;5071612;28;19921;-75
2022/08/20 05:13:08;;;;;;;;;;;18.10;99.90;;;;;;5066243;28;20023;-74
2022/08/20 05:15:34;;;;;;;;;;;18.10;99.90;;;;;;5068788;28;19939;-74
2022/08/20 05:18:01;;;;;;;;;;;18.10;99.90;;;;;;5063544;28;19920;-75
2022/08/20 05:20:29;;;;;;;;;;;18.00;99.90;;;;;;5063795;28;19909;-75
2022/08/20 05:22:54;;;;;;;;;;;18.00;99.90;;;;;;5065176;28;19919;-74
2022/08/20 05:25:20;;;;;;;;;;;18.00;99.90;;;;;;5062487;28;19912;-75
2022/08/20 05:27:46;;;;;;;;;;;18.00;99.90;;;;;;5070251;28;20016;-74
2022/08/20 05:30:11;;;;;;;;;;;17.90;99.90;;;;;;5062406;28;19956;-75
2022/08/20 05:32:37;;;;;;;;;;;17.90;99.90;;;;;;5052705;28;19915;-75
2022/08/20 05:35:06;;;;;;;;;;;18.00;99.90;;;;;;5070931;28;19921;-73
2022/08/20 05:37:33;;;;;;;;;;;18.00;99.90;;;;;;5062762;28;19913;-75
2022/08/20 05:39:59;;;;;;;;;;;18.00;99.90;;;;;;5067806;28;19998;-74
2022/08/20 05:42:27;;;;;;;;;;;18.00;99.90;;;;;;5069263;28;19960;-75
2022/08/20 05:44:53;;;;;;;;;;;18.00;99.90;;;;;;5073909;28;19920;-74
2022/08/20 05:47:18;;;;;;;;;;;18.00;99.90;;;;;;5067897;28;19920;-73
2022/08/20 05:49:45;;;;;;;;;;;18.00;99.90;;;;;;5078897;28;19909;-73
2022/08/20 05:52:11;;;;;;;;;;;18.10;99.90;;;;;;5068824;28;19913;-74
2022/08/20 05:54:36;;;;;;;;;;;18.10;99.90;;;;;;5064046;28;19920;-74
2022/08/20 05:57:02;;;;;;;;;;;18.20;99.90;;;;;;5067852;28;19916;-75
2022/08/20 05:59:28;;;;;;;;;;;18.20;99.90;;;;;;5052441;28;19919;-74
2022/08/20 06:01:53;;;;;;;;;;;18.30;99.90;;;;;;5062223;28;19913;-75
2022/08/20 06:04:30;;;;;;;;;;;18.30;99.90;;;;;;5073783;28;20003;-75
2022/08/20 06:07:00;;;;;;;;;;;18.40;99.90;;;;;;5046401;28;19965;-74
2022/08/20 06:09:26;;;;;;;;;;;18.50;99.90;;;;;;5067825;28;19963;-74
2022/08/20 06:11:51;;;;;;;;;;;18.60;99.90;;;;;;5062550;28;19917;-74
2022/08/20 06:14:19;;;;;;;;;;;18.70;99.90;;;;;;5068703;28;19931;-74
2022/08/20 06:16:45;;;;;;;;;;;18.80;99.90;;;;;;5049538;28;19939;-75
2022/08/20 06:19:10;;;;;;;;;;;18.80;99.90;;;;;;5068789;28;20359;-75
2022/08/20 06:21:36;;;;;;;;;;;18.90;99.90;;;;;;5067712;28;19912;-75
2022/08/20 06:24:02;;;;;;;;;;;19.00;99.90;;;;;;5043737;28;20311;-75
2022/08/20 06:26:28;;;;;;;;;;;19.00;99.90;;;;;;5050747;28;20007;-75
2022/08/20 06:28:53;;;;;;;;;;;19.10;99.90;;;;;;5066758;28;19924;-75
2022/08/20 06:31:20;;;;;;;;;;;19.20;99.90;;;;;;5073455;28;20272;-75
2022/08/20 06:33:46;;;;;;;;;;;19.30;99.90;;;;;;5057473;28;19924;-74
2022/08/20 06:36:11;;;;;;;;;;;19.40;99.90;;;;;;5079043;28;19936;-74
2022/08/20 06:38:37;;;;;;;;;;;19.50;99.90;;;;;;5066486;28;19908;-74
2022/08/20 06:41:02;;;;;;;;;;;19.60;99.90;;;;;;5070765;28;20394;-74
2022/08/20 06:43:28;;;;;;;;;;;19.60;99.90;;;;;;5072196;28;19920;-74
2022/08/20 06:45:56;;;;;;;;;;;19.70;99.90;;;;;;5070640;28;19915;-74
2022/08/20 06:48:22;;;;;;;;;;;19.70;99.90;;;;;;5054769;28;20435;-74
2022/08/20 06:50:47;;;;;;;;;;;19.90;99.90;;;;;;5067395;28;19959;-73
2022/08/20 06:53:15;;;;;;;;;;;20.00;99.90;;;;;;5075334;28;19952;-74
2022/08/20 06:55:43;;;;;;;;;;;20.10;99.90;;;;;;5074476;28;19913;-74
2022/08/20 06:58:10;;;;;;;;;;;20.20;99.90;;;;;;5053190;28;19908;-74
2022/08/20 07:00:36;;;;;;;;;;;20.30;99.90;;;;;;5071299;28;19956;-75
2022/08/20 07:03:02;;;;;;;;;;;20.40;99.90;;;;;;5062222;28;19916;-75
2022/08/20 07:05:28;;;;;;;;;;;20.40;99.90;;;;;;5072689;28;20053;-74
2022/08/20 07:07:54;;;;;;;;;;;20.50;99.90;;;;;;5071783;28;19912;-75
2022/08/20 07:10:20;;;;;;;;;;;20.60;99.90;;;;;;5072147;28;19912;-74
2022/08/20 07:12:45;;;;;;;;;;;20.50;99.90;;;;;;5072079;28;20322;-75
2022/08/20 07:15:11;;;;;;;;;;;20.50;99.90;;;;;;5067057;28;19922;-74
2022/08/20 07:17:37;;;;;;;;;;;20.60;99.90;;;;;;5057525;28;19964;-75
2022/08/20 07:20:14;;;;;;;;;;;20.70;99.90;;;;;;5069117;28;19916;-73
2022/08/20 07:22:41;;;;;;;;;;;20.90;99.90;;;;;;5048397;28;19908;-72
2022/08/20 07:25:08;;;;;;;;;;;21.00;99.90;;;;;;5073842;28;19916;-75
2022/08/20 07:27:35;;;;;;;;;;;21.00;99.90;;;;;;5080413;28;19912;-75
2022/08/20 07:32:45;;;;;;;;;;;21.10;99.90;;;;;;5073390;28;20042;-74
2022/08/20 07:35:13;;;;;;;;;;;21.20;99.90;;;;;;5070556;28;19956;-75
2022/08/20 07:37:40;;;;;;;;;;;21.20;99.90;;;;;;5064418;28;19909;-75
2022/08/20 07:40:06;;;;;;;;;;;21.30;99.90;;;;;;5070831;28;19920;-75
2022/08/20 07:42:32;;;;;;;;;;;21.40;99.90;;;;;;5048996;28;19979;-75
2022/08/20 07:44:57;;;;;;;;;;;21.40;99.90;;;;;;5065425;28;19924;-75
2022/08/20 07:47:23;;;;;;;;;;;21.50;99.90;;;;;;5053090;28;19928;-75
2022/08/20 07:49:48;;;;;;;;;;;21.50;99.90;;;;;;5071838;28;20352;-72
2022/08/20 07:52:14;;;;;;;;;;;21.50;99.90;;;;;;5074200;28;20008;-73
2022/08/20 07:54:40;;;;;;;;;;;21.50;99.90;;;;;;5061380;28;19913;-75
2022/08/20 07:57:06;;;;;;;;;;;21.60;99.90;;;;;;5063623;28;20139;-74
2022/08/20 07:59:31;;;;;;;;;;;21.70;99.90;;;;;;5067695;28;19999;-74
2022/08/20 08:01:57;;;;;;;;;;;21.70;99.90;;;;;;5061232;28;20257;-73
2022/08/20 08:04:23;;;;;;;;;;;21.80;99.90;;;;;;5051206;28;20334;-73
2022/08/20 08:06:51;;;;;;;;;;;21.80;99.90;;;;;;5071166;28;19960;-74
2022/08/20 08:09:17;;;;;;;;;;;21.70;99.90;;;;;;5047335;28;19916;-74
2022/08/20 08:11:48;;;;;;;;;;;21.80;99.90;;;;;;5064195;28;19942;-74
2022/08/20 08:14:15;;;;;;;;;;;21.90;99.50;;;;;;5065702;28;20427;-74
2022/08/20 08:16:44;;;;;;;;;;;22.00;99.50;;;;;;5068840;28;19940;-75
2022/08/20 08:19:13;;;;;;;;;;;22.20;99.90;;;;;;5072122;28;19909;-75
2022/08/20 08:21:38;;;;;;;;;;;22.20;99.70;;;;;;5053110;28;19912;-74
2022/08/20 08:24:04;;;;;;;;;;;22.30;99.90;;;;;;5063659;28;19913;-75
2022/08/20 08:26:29;;;;;;;;;;;22.30;99.50;;;;;;5070334;28;19923;-74
2022/08/20 08:28:56;;;;;;;;;;;22.40;99.90;;;;;;5071812;28;19916;-75
2022/08/20 08:31:24;;;;;;;;;;;22.50;99.90;;;;;;5063411;28;20369;-75
2022/08/20 08:33:50;;;;;;;;;;;22.60;99.20;;;;;;5059414;28;20183;-74
2022/08/20 08:36:15;;;;;;;;;;;22.60;99.30;;;;;;5055122;28;20560;-75
2022/08/20 08:38:42;;;;;;;;;;;22.90;99.40;;;;;;5068656;28;19927;-74
2022/08/20 08:41:19;;;;;;;;;;;23.00;98.90;;;;;;5063609;28;19999;-73
2022/08/20 08:43:49;;;;;;;;;;;23.00;98.20;;;;;;5071920;28;20372;-74
2022/08/20 08:46:17;;;;;;;;;;;23.10;98.50;;;;;;5067919;28;19939;-76
2022/08/20 08:48:44;;;;;;;;;;;23.20;98.30;;;;;;5070554;28;20342;-76
2022/08/20 08:51:11;;;;;;;;;;;23.30;98.00;;;;;;5059988;28;20376;-77
2022/08/20 08:53:44;;;;;;;;;;;23.40;97.40;;;;;;5064749;28;20196;-75
2022/08/20 08:56:10;;;;;;;;;;;23.40;96.60;;;;;;5048691;28;19921;-76
2022/08/20 08:58:36;;;;;;;;;;;23.30;97.90;;;;;;5057049;28;19928;-76
2022/08/20 09:01:03;;;;;;;;;;;23.40;97.30;;;;;;5066547;28;19912;-72
2022/08/20 09:03:30;;;;;;;;;;;23.60;96.20;;;;;;5058378;28;19938;-73
2022/08/20 09:05:58;;;;;;;;;;;23.80;96.20;;;;;;5037816;28;19913;-72
2022/08/20 09:08:26;;;;;;;;;;;23.80;96.20;;;;;;5067515;28;19946;-73
2022/08/20 09:10:52;;;;;;;;;;;24.00;96.10;;;;;;5067196;28;20362;-74
2022/08/20 09:13:18;;;;;;;;;;;24.30;96.90;;;;;;5050182;28;19966;-74
2022/08/20 09:15:43;;;;;;;;;;;24.60;95.40;;;;;;5063590;28;19916;-74
2022/08/20 09:18:09;;;;;;;;;;;24.70;95.40;;;;;;5064499;28;19919;-75
2022/08/20 09:20:34;;;;;;;;;;;24.80;95.90;;;;;;5045157;28;20324;-74
2022/08/20 09:23:00;;;;;;;;;;;25.00;94.40;;;;;;5053873;28;20104;-74
2022/08/20 09:25:25;;;;;;;;;;;24.70;94.10;;;;;;5074106;28;20058;-74
2022/08/20 09:27:51;;;;;;;;;;;24.50;94.60;;;;;;5056168;28;19938;-74
2022/08/20 09:30:16;;;;;;;;;;;24.70;94.40;;;;;;5065953;28;19916;-75
2022/08/20 09:32:42;;;;;;;;;;;24.90;94.90;;;;;;5059621;28;20050;-74
2022/08/20 09:35:08;;;;;;;;;;;25.30;94.50;;;;;;5074363;28;19977;-75
2022/08/20 09:37:33;;;;;;;;;;;25.70;94.30;;;;;;5050550;28;19920;-76
2022/08/20 09:39:59;;;;;;;;;;;25.50;94.60;;;;;;5049550;28;19919;-73
2022/08/20 09:42:29;;;;;;;;;;;25.50;94.40;;;;;;5070078;28;19938;-74
2022/08/20 09:44:56;;;;;;;;;;;25.60;93.60;;;;;;5064464;28;20374;-74
2022/08/20 09:47:21;;;;;;;;;;;25.80;94.20;;;;;;5056353;28;19924;-75
2022/08/20 09:49:47;;;;;;;;;;;25.90;93.60;;;;;;5051522;28;20001;-74
2022/08/20 09:52:19;;;;;;;;;;;26.00;93.60;;;;;;5049513;28;19923;-74
2022/08/20 09:54:44;;;;;;;;;;;25.90;93.70;;;;;;5068848;28;20368;-72
2022/08/20 09:57:11;;;;;;;;;;;26.30;94.20;;;;;;5073630;28;19916;-73
2022/08/20 09:59:37;;;;;;;;;;;26.70;92.90;;;;;;5071420;28;19917;-75
2022/08/20 10:02:02;;;;;;;;;;;27.00;93.20;;;;;;5072027;28;19920;-75
2022/08/20 10:04:28;;;;;;;;;;;26.80;92.70;;;;;;5045540;28;20319;-73
2022/08/20 10:06:54;;;;;;;;;;;26.70;92.60;;;;;;5068289;28;19912;-74
2022/08/20 10:09:20;;;;;;;;;;;26.40;92.70;;;;;;5043618;28;19979;-75
2022/08/20 10:11:45;;;;;;;;;;;25.90;93.50;;;;;;5074560;28;20358;-75
2022/08/20 10:14:11;;;;;;;;;;;25.60;93.00;;;;;;5074870;28;19965;-75
2022/08/20 10:16:36;;;;;;;;;;;25.40;93.80;;;;;;5074338;28;19920;-74
2022/08/20 10:19:03;;;;;;;;;;;25.30;93.90;;;;;;5074569;28;19924;-75
2022/08/20 10:21:29;;;;;;;;;;;25.20;93.80;;;;;;5051698;28;19913;-74
2022/08/20 10:23:54;;;;;;;;;;;25.30;94.60;;;;;;5054118;28;19913;-71
2022/08/20 10:26:20;;;;;;;;;;;25.80;94.50;;;;;;5056715;28;19912;-73
2022/08/20 10:28:45;;;;;;;;;;;26.40;94.40;;;;;;5071383;28;20372;-71
2022/08/20 10:31:14;;;;;;;;;;;26.90;94.00;;;;;;5074262;28;20292;-71
2022/08/20 10:33:40;;;;;;;;;;;27.30;93.80;;;;;;5074369;28;20348;-71
2022/08/20 10:36:10;;;;;;;;;;;27.50;93.20;;;;;;5074223;28;20007;-72
2022/08/20 10:38:37;;;;;;;;;;;27.10;92.10;;;;;;5073282;28;20352;-72
2022/08/20 10:41:02;;;;;;;;;;;26.50;92.50;;;;;;5074640;28;19974;-71
2022/08/20 10:43:28;;;;;;;;;;;26.00;92.70;;;;;;5070754;28;19963;-72
2022/08/20 10:45:53;;;;;;;;;;;25.70;93.20;;;;;;5068417;28;20448;-71
2022/08/20 10:48:19;;;;;;;;;;;25.90;94.30;;;;;;5068985;28;19920;-73
2022/08/20 10:50:44;;;;;;;;;;;26.10;93.90;;;;;;5070307;28;20376;-73
2022/08/20 10:53:10;;;;;;;;;;;26.00;93.40;;;;;;5073202;28;20402;-73
2022/08/20 10:55:35;;;;;;;;;;;25.70;93.90;;;;;;5074231;28;19913;-72
2022/08/20 10:58:03;;;;;;;;;;;25.20;93.70;;;;;;5043456;28;19913;-72
2022/08/20 11:00:29;;;;;;;;;;;24.80;94.00;;;;;;5055269;28;20004;-71
2022/08/20 11:02:54;;;;;;;;;;;24.40;94.30;;;;;;5073791;28;19951;-71
2022/08/20 11:05:20;;;;;;;;;;;24.20;94.70;;;;;;5066023;28;20352;-72
2022/08/20 11:07:45;;;;;;;;;;;24.00;95.00;;;;;;5072028;28;20394;-72
2022/08/20 11:10:11;;;;;;;;;;;23.90;95.20;;;;;;5056797;28;19913;-72
2022/08/20 11:12:36;;;;;;;;;;;23.70;95.60;;;;;;5072694;28;19920;-73
2022/08/20 11:15:03;;;;;;;;;;;23.50;95.70;;;;;;5065679;28;19923;-72
2022/08/20 11:20:15;;;;;;;;;;;23.40;96.10;;;;;;5073209;28;19919;-71
2022/08/20 11:22:40;;;;;;;;;;;23.50;96.90;;;;;;5049382;28;20382;-71
2022/08/20 11:25:06;;;;;;;;;;;23.70;96.50;;;;;;5072551;28;19912;-72
2022/08/20 11:27:37;;;;;;;;;;;24.00;96.00;;;;;;5069381;28;19916;-72
2022/08/20 11:30:04;;;;;;;;;;;24.30;96.00;;;;;;5070224;28;19916;-72
2022/08/20 11:32:30;;;;;;;;;;;24.20;96.00;;;;;;5054610;28;19916;-72
2022/08/20 11:34:55;;;;;;;;;;;24.00;96.00;;;;;;5055104;28;20003;-73
2022/08/20 11:37:22;;;;;;;;;;;23.90;96.40;;;;;;5071326;28;19912;-72
2022/08/20 11:39:48;;;;;;;;;;;24.00;96.30;;;;;;5053570;28;19913;-73
2022/08/20 11:42:13;;;;;;;;;;;24.40;96.60;;;;;;5072689;28;19913;-72
2022/08/20 11:44:39;;;;;;;;;;;24.60;95.60;;;;;;5070636;28;19912;-73
2022/08/20 11:47:05;;;;;;;;;;;24.70;95.40;;;;;;5072427;28;20364;-73
2022/08/20 11:49:31;;;;;;;;;;;24.60;95.70;;;;;;5071886;28;19963;-71
2022/08/20 11:51:57;;;;;;;;;;;24.60;96.30;;;;;;5073081;28;19943;-71
2022/08/20 11:54:22;;;;;;;;;;;24.80;95.40;;;;;;5067597;28;19955;-74
2022/08/20 11:56:48;;;;;;;;;;;24.90;95.90;;;;;;5071832;28;19958;-72
2022/08/20 11:59:14;;;;;;;;;;;24.90;95.00;;;;;;5072224;28;19916;-75
2022/08/20 12:01:39;;;;;;;;;;;25.00;95.40;;;;;;5054299;28;19913;-72
2022/08/20 12:04:05;;;;;;;;;;;25.10;95.60;;;;;;5072288;28;19912;-71
2022/08/20 12:06:31;;;;;;;;;;;25.30;94.90;;;;;;5072438;28;19913;-73
2022/08/20 12:08:57;;;;;;;;;;;25.10;95.20;;;;;;5063666;28;19978;-73
2022/08/20 12:11:22;;;;;;;;;;;24.90;95.10;;;;;;5067927;28;20375;-73
2022/08/20 12:13:48;;;;;;;;;;;24.70;95.80;;;;;;5073297;28;19917;-72
2022/08/20 12:16:14;;;;;;;;;;;24.60;96.20;;;;;;5058981;28;19920;-72
2022/08/20 12:18:39;;;;;;;;;;;24.50;96.20;;;;;;5072555;28;19912;-72
2022/08/20 12:21:05;;;;;;;;;;;24.50;96.60;;;;;;5067903;28;19965;-71
2022/08/20 12:23:30;;;;;;;;;;;24.50;97.00;;;;;;5065391;28;20045;-72
2022/08/20 12:25:56;;;;;;;;;;;24.60;96.00;;;;;;5047808;28;19919;-72
2022/08/20 12:28:21;;;;;;;;;;;24.60;96.50;;;;;;5069331;28;19917;-73
2022/08/20 12:30:49;;;;;;;;;;;24.80;95.90;;;;;;5071457;28;20144;-72
2022/08/20 12:33:14;;;;;;;;;;;25.10;96.00;;;;;;5068822;28;20284;-72
2022/08/20 12:35:40;;;;;;;;;;;25.20;96.40;;;;;;5067437;28;19919;-71
2022/08/20 12:38:06;;;;;;;;;;;25.10;95.90;;;;;;5072301;28;20356;-72
2022/08/20 12:40:32;;;;;;;;;;;25.10;96.20;;;;;;5062154;28;19912;-71
2022/08/20 12:42:57;;;;;;;;;;;24.90;96.30;;;;;;5072064;28;19912;-71
2022/08/20 12:45:23;;;;;;;;;;;24.80;96.30;;;;;;5050925;28;19923;-72
2022/08/20 12:47:48;;;;;;;;;;;24.80;96.40;;;;;;5049463;28;19921;-72
2022/08/20 12:50:17;;;;;;;;;;;24.60;95.70;;;;;;5071743;28;20002;-73
2022/08/20 12:52:42;;;;;;;;;;;24.40;96.00;;;;;;5061642;28;19916;-74
2022/08/20 12:55:09;;;;;;;;;;;24.30;96.50;;;;;;5068685;28;20058;-72
2022/08/20 12:57:55;;;;;;;;;;;24.30;97.10;;;;;;5053853;28;19921;-72
2022/08/20 13:00:23;;;;;;;;;;;24.40;97.00;;;;;;5069171;28;20006;-72
2022/08/20 13:02:49;;;;;;;;;;;24.50;96.80;;;;;;5063048;28;19913;-73
2022/08/20 13:05:15;;;;;;;;;;;24.60;96.30;;;;;;5072386;28;20275;-73
2022/08/20 13:07:41;;;;;;;;;;;24.70;96.50;;;;;;5062999;28;19952;-72
2022/08/20 13:10:08;;;;;;;;;;;24.80;95.90;;;;;;5056836;28;19912;-72
2022/08/20 13:12:34;;;;;;;;;;;24.90;96.40;;;;;;5071727;28;19958;-71
2022/08/20 13:14:59;;;;;;;;;;;25.10;96.30;;;;;;5054546;28;19916;-71
2022/08/20 13:17:25;;;;;;;;;;;25.50;96.30;;;;;;5071733;28;19921;-71
2022/08/20 13:19:51;;;;;;;;;;;25.70;95.80;;;;;;5067532;28;19912;-72
2022/08/20 13:22:16;;;;;;;;;;;26.10;96.10;;;;;;5050496;28;19951;-71
2022/08/20 13:24:42;;;;;;;;;;;26.40;95.10;;;;;;5053551;28;19959;-72
2022/08/20 13:27:09;;;;;;;;;;;26.60;95.60;;;;;;5041769;28;19913;-71
2022/08/20 13:29:35;;;;;;;;;;;26.70;95.00;;;;;;5069660;28;19919;-70
2022/08/20 13:32:01;;;;;;;;;;;26.50;95.00;;;;;;5052886;28;20465;-72
2022/08/20 13:34:26;;;;;;;;;;;26.40;95.40;;;;;;5066857;28;19925;-71
2022/08/20 13:36:54;;;;;;;;;;;26.60;95.10;;;;;;5069012;28;20332;-72
2022/08/20 13:39:20;;;;;;;;;;;26.60;94.30;;;;;;5072299;28;19919;-72
2022/08/20 13:41:45;;;;;;;;;;;26.20;94.80;;;;;;5064695;28;19919;-72
2022/08/20 13:44:11;;;;;;;;;;;25.90;95.80;;;;;;5068790;28;19995;-72
2022/08/20 13:46:36;;;;;;;;;;;25.60;96.40;;;;;;5071143;28;20042;-72
2022/08/20 13:49:02;;;;;;;;;;;25.40;96.40;;;;;;5058591;28;19925;-72
2022/08/20 13:51:27;;;;;;;;;;;25.20;96.40;;;;;;5070452;28;20386;-74
2022/08/20 13:53:53;;;;;;;;;;;25.20;96.50;;;;;;5070807;28;19913;-71
2022/08/20 13:56:18;;;;;;;;;;;25.60;97.30;;;;;;5071083;28;19917;-72
2022/08/20 13:58:44;;;;;;;;;;;26.10;97.50;;;;;;5071056;28;20438;-71
2022/08/20 14:01:10;;;;;;;;;;;26.70;96.60;;;;;;5071785;28;19917;-73
2022/08/20 14:03:35;;;;;;;;;;;26.90;96.20;;;;;;5065997;28;19913;-72
2022/08/20 14:06:01;;;;;;;;;;;26.70;96.40;;;;;;5055259;28;20402;-71
2022/08/20 14:08:27;;;;;;;;;;;26.80;96.30;;;;;;5073128;28;19916;-72
2022/08/20 14:10:52;;;;;;;;;;;26.80;96.30;;;;;;5075114;28;19939;-73
2022/08/20 14:13:19;;;;;;;;;;;26.70;95.70;;;;;;5073451;28;20387;-71
2022/08/20 14:15:45;;;;;;;;;;;26.60;96.10;;;;;;5069800;28;19912;-73
2022/08/20 14:18:11;;;;;;;;;;;26.60;95.80;;;;;;5052780;28;20030;-72
2022/08/20 14:20:37;;;;;;;;;;;26.20;96.40;;;;;;5062463;28;19920;-71
2022/08/20 14:23:02;;;;;;;;;;;25.90;96.90;;;;;;5073156;28;19917;-72